Time;durP1;ratioP1;P1;durP2;ratioP2;P2;SDS_P1;SDS_P2;PMS_P1;PMS_P2;Temp;Humidity;BMP_temperature;BMP_pressure;BME280_temperature;BME280_humidity;BME280_pressure;Samples;Min_cycle;Max_cycle;Signal;HPM_P1;HPM_P2
2022/06/24 00:01:41;;;;;;;4.97;4.78;;;;;;;-143.83;100.00;62900.06;5029494;28;20102;-60
2022/06/24 00:04:07;;;;;;;4.90;4.70;;;;;;;-143.83;100.00;62900.06;5027769;28;20363;-61
2022/06/24 00:06:46;;;;;;;5.00;4.80;;;;;;;-143.83;100.00;62900.06;5019866;28;20041;-60
2022/06/24 00:09:15;;;;;;;4.90;4.70;;;;;;;-143.83;100.00;62900.06;5034126;28;20040;-61
2022/06/24 00:11:41;;;;;;;4.90;4.70;;;;;;;-143.83;100.00;62900.06;5034605;28;20541;-61
2022/06/24 00:14:09;;;;;;;4.80;4.60;;;;;;;-143.83;100.00;62900.06;5035753;28;20029;-61
2022/06/24 00:16:54;;;;;;;4.90;4.70;;;;;;;-143.83;100.00;62900.06;5030218;28;20106;-61
2022/06/24 00:19:19;;;;;;;5.00;4.80;;;;;;;-143.83;100.00;62900.06;5033811;28;20707;-60
2022/06/24 00:22:05;;;;;;;4.93;4.72;;;;;;;-143.83;100.00;62900.06;5040273;28;20076;-61
2022/06/24 00:24:32;;;;;;;4.88;4.68;;;;;;;-143.83;100.00;62900.06;5012595;28;20082;-60
2022/06/24 00:26:58;;;;;;;5.10;4.90;;;;;;;-143.83;100.00;62900.06;5046923;28;20397;-61
2022/06/24 00:29:29;;;;;;;4.90;4.70;;;;;;;-143.83;100.00;62900.06;5033491;28;20029;-60
2022/06/24 00:32:08;;;;;;;4.90;4.70;;;;;;;-143.83;100.00;62900.06;5025247;28;20036;-60
2022/06/24 00:34:37;;;;;;;4.88;4.68;;;;;;;-143.83;100.00;62900.06;5017781;28;20048;-60
2022/06/24 00:37:22;;;;;;;4.75;4.55;;;;;;;-143.83;100.00;62900.06;5041919;28;20025;-60
2022/06/24 00:39:48;;;;;;;5.00;4.80;;;;;;;-143.83;100.00;62900.06;5032978;28;20034;-61
2022/06/24 00:42:15;;;;;;;5.00;4.80;;;;;;;-143.83;100.00;62900.06;5024246;28;20031;-62
2022/06/24 00:44:56;;;;;;;5.10;4.90;;;;;;;-143.83;100.00;62900.06;5018918;28;20029;-61
2022/06/24 00:47:22;;;;;;;5.05;4.85;;;;;;;-143.83;100.00;62900.06;5036087;28;20401;-60
2022/06/24 00:49:49;;;;;;;4.88;4.68;;;;;;;-143.83;100.00;62900.06;5030617;28;20061;-61
2022/06/24 00:52:15;;;;;;;4.90;4.70;;;;;;;-143.83;100.00;62900.06;5031384;28;20175;-61
2022/06/24 00:54:43;;;;;;;5.00;4.80;;;;;;;-143.83;100.00;62900.06;5026403;28;20104;-60
2022/06/24 00:57:09;;;;;;;4.88;4.68;;;;;;;-143.83;100.00;62900.06;5022856;28;20037;-60
2022/06/24 00:59:36;;;;;;;5.10;4.90;;;;;;;-143.83;100.00;62900.06;5032177;28;20032;-60
2022/06/24 01:02:06;;;;;;;4.95;4.75;;;;;;;-143.83;100.00;62900.06;5038870;28;20088;-61
2022/06/24 01:04:33;;;;;;;4.90;4.70;;;;;;;-143.83;100.00;62900.06;5032106;28;20136;-61
2022/06/24 01:06:59;;;;;;;5.10;4.90;;;;;;;-143.83;100.00;62900.06;5031634;28;20041;-61
2022/06/24 01:09:24;;;;;;;4.90;4.70;;;;;;;-143.83;100.00;62900.06;5032677;28;20162;-61
2022/06/24 01:11:49;;;;;;;4.97;4.78;;;;;;;-143.83;100.00;62900.06;5032450;28;20033;-61
2022/06/24 01:14:15;;;;;;;4.80;4.60;;;;;;;-143.83;100.00;62900.06;5032818;28;20024;-61
2022/06/24 01:16:41;;;;;;;4.90;4.70;;;;;;;-143.83;100.00;62900.06;5031673;28;20104;-60
2022/06/24 01:19:09;;;;;;;5.03;4.82;;;;;;;-143.83;100.00;62900.06;5031839;28;20022;-60
2022/06/24 01:21:39;;;;;;;4.90;4.70;;;;;;;-143.83;100.00;62900.06;5032132;28;20033;-60
2022/06/24 01:24:19;;;;;;;4.90;4.70;;;;;;;-143.83;100.00;62900.06;5030265;28;20160;-61
2022/06/24 01:26:48;;;;;;;4.90;4.70;;;;;;;-143.83;100.00;62900.06;5029549;28;20499;-60
2022/06/24 01:29:14;;;;;;;4.88;4.68;;;;;;;-143.83;100.00;62900.06;5020706;28;20025;-60
2022/06/24 01:31:41;;;;;;;4.90;4.70;;;;;;;-143.83;100.00;62900.06;5031664;28;20029;-61
2022/06/24 01:34:08;;;;;;;4.80;4.60;;;;;;;-143.83;100.00;62900.06;5036131;28;20369;-61
2022/06/24 01:36:34;;;;;;;4.82;4.63;;;;;;;-143.83;100.00;62900.06;5034073;28;20025;-61
2022/06/24 01:38:59;;;;;;;4.90;4.70;;;;;;;-143.83;100.00;62900.06;5032138;28;20029;-61
2022/06/24 01:41:25;;;;;;;4.90;4.70;;;;;;;-143.83;100.00;62900.06;5031134;28;20025;-60
2022/06/24 01:43:50;;;;;;;4.80;4.60;;;;;;;-143.83;100.00;62900.06;5031929;28;20029;-60
2022/06/24 01:46:16;;;;;;;4.82;4.63;;;;;;;-143.83;100.00;62900.06;5031317;28;20067;-61
2022/06/24 01:48:41;;;;;;;4.90;4.70;;;;;;;-143.83;100.00;62900.06;5031801;28;20021;-60
2022/06/24 01:51:11;;;;;;;4.70;4.50;;;;;;;-143.83;100.00;62900.06;5031591;28;20029;-60
2022/06/24 01:53:37;;;;;;;4.90;4.70;;;;;;;-143.83;100.00;62900.06;5032106;28;20060;-60
2022/06/24 01:56:02;;;;;;;4.93;4.72;;;;;;;-143.83;100.00;62900.06;5032196;28;20491;-61
2022/06/24 01:58:28;;;;;;;4.90;4.70;;;;;;;-143.83;100.00;62900.06;5030634;28;20096;-61
2022/06/24 02:00:54;;;;;;;5.00;4.80;;;;;;;-143.83;100.00;62900.06;5030988;28;20615;-61
2022/06/24 02:03:19;;;;;;;4.85;4.65;;;;;;;-143.83;100.00;62900.06;5031769;28;20025;-60
2022/06/24 02:05:46;;;;;;;5.00;4.80;;;;;;;-143.83;100.00;62900.06;5026738;28;20496;-60
2022/06/24 02:08:13;;;;;;;4.88;4.68;;;;;;;-143.83;100.00;62900.06;5038773;28;20102;-61
2022/06/24 02:13:29;;;;;;;5.07;4.88;;;;;;;-143.83;100.00;62900.06;5031807;28;20029;-60
2022/06/24 02:16:00;;;;;;;4.90;4.70;;;;;;;-143.83;100.00;62900.06;5030968;28;20696;-60
2022/06/24 02:18:27;;;;;;;4.90;4.70;;;;;;;-143.83;100.00;62900.06;5030811;28;20112;-61
2022/06/24 02:20:53;;;;;;;4.80;4.60;;;;;;;-143.83;100.00;62900.06;5031663;28;20029;-60
2022/06/24 02:23:20;;;;;;;4.80;4.60;;;;;;;-143.83;100.00;62900.06;5020702;28;20068;-61
2022/06/24 02:25:47;;;;;;;4.88;4.68;;;;;;;-143.83;100.00;62900.06;5024517;28;20030;-61
2022/06/24 02:28:13;;;;;;;4.90;4.70;;;;;;;-143.83;100.00;62900.06;5030677;28;20021;-61
2022/06/24 02:30:39;;;;;;;4.95;4.75;;;;;;;-143.83;100.00;62900.06;5035676;28;20036;-60
2022/06/24 02:33:06;;;;;;;4.90;4.70;;;;;;;-143.83;100.00;62900.06;5034661;28;20029;-60
2022/06/24 02:35:31;;;;;;;4.90;4.70;;;;;;;-143.83;100.00;62900.06;5035676;28;20397;-60
2022/06/24 02:37:57;;;;;;;4.78;4.57;;;;;;;-143.83;100.00;62900.06;5035499;28;20017;-63
2022/06/24 02:43:11;;;;;;;4.80;4.60;;;;;;;-143.83;100.00;62900.06;5036205;28;20044;-61
2022/06/24 02:45:37;;;;;;;4.88;4.68;;;;;;;-143.83;100.00;62900.06;5035274;28;20408;-61
2022/06/24 02:48:03;;;;;;;4.80;4.60;;;;;;;-143.83;100.00;62900.06;5035466;28;20043;-61
2022/06/24 02:50:29;;;;;;;4.80;4.60;;;;;;;-143.83;100.00;62900.06;5034082;28;20060;-61
2022/06/24 02:52:54;;;;;;;4.80;4.60;;;;;;;-143.83;100.00;62900.06;5034499;28;20041;-62
2022/06/24 02:55:20;;;;;;;4.85;4.65;;;;;;;-143.83;100.00;62900.06;5028073;28;20025;-61
2022/06/24 02:57:45;;;;;;;4.80;4.60;;;;;;;-143.83;100.00;62900.06;5035064;28;20052;-60
2022/06/24 03:00:11;;;;;;;4.70;4.50;;;;;;;-143.83;100.00;62900.06;5035716;28;20109;-60
2022/06/24 03:02:37;;;;;;;4.80;4.60;;;;;;;-143.83;100.00;62900.06;5035178;28;20100;-61
2022/06/24 03:05:02;;;;;;;4.68;4.47;;;;;;;-143.83;100.00;62900.06;5027378;28;20509;-60
2022/06/24 03:07:28;;;;;;;4.75;4.55;;;;;;;-143.83;100.00;62900.06;5025225;28;20029;-61
2022/06/24 03:09:53;;;;;;;4.75;4.55;;;;;;;-143.83;100.00;62900.06;5028872;28;20371;-61
2022/06/24 03:12:19;;;;;;;4.70;4.50;;;;;;;-143.83;100.00;62900.06;5031982;28;20049;-61
2022/06/24 03:14:44;;;;;;;5.00;4.80;;;;;;;-143.83;100.00;62900.06;5035130;28;20032;-61
2022/06/24 03:17:10;;;;;;;4.90;4.70;;;;;;;-143.83;100.00;62900.06;5034840;28;20075;-61
2022/06/24 03:19:35;;;;;;;4.60;4.40;;;;;;;-143.83;100.00;62900.06;5023155;28;20022;-61
2022/06/24 03:22:00;;;;;;;4.75;4.55;;;;;;;-143.83;100.00;62900.06;5022067;28;20026;-61
2022/06/24 03:24:26;;;;;;;4.60;4.40;;;;;;;-143.83;100.00;62900.06;5029840;28;20063;-61
2022/06/24 03:26:51;;;;;;;4.75;4.55;;;;;;;-143.83;100.00;62900.06;5034763;28;20389;-60
2022/06/24 03:29:17;;;;;;;4.70;4.50;;;;;;;-143.83;100.00;62900.06;5031058;28;20117;-60
2022/06/24 03:31:42;;;;;;;4.70;4.50;;;;;;;-143.83;100.00;62900.06;5034317;28;20040;-60
2022/06/24 03:34:08;;;;;;;4.68;4.47;;;;;;;-143.83;100.00;62900.06;5034833;28;20025;-61
2022/06/24 03:36:33;;;;;;;4.72;4.53;;;;;;;-143.83;100.00;62900.06;5033479;28;20048;-61
2022/06/24 03:38:59;;;;;;;4.50;4.30;;;;;;;-143.83;100.00;62900.06;5027529;28;20429;-60
2022/06/24 03:41:25;;;;;;;4.65;4.45;;;;;;;-143.83;100.00;62900.06;5029970;28;20034;-60
2022/06/24 03:43:50;;;;;;;4.70;4.50;;;;;;;-143.83;100.00;62900.06;5034059;28;20017;-60
2022/06/24 03:46:16;;;;;;;4.68;4.47;;;;;;;-143.83;100.00;62900.06;5026505;28;20026;-60
2022/06/24 03:48:41;;;;;;;4.70;4.50;;;;;;;-143.83;100.00;62900.06;5027455;28;20473;-61
2022/06/24 03:51:07;;;;;;;4.75;4.55;;;;;;;-143.83;100.00;62900.06;5039903;28;20075;-61
2022/06/24 03:53:33;;;;;;;4.70;4.50;;;;;;;-143.83;100.00;62900.06;5034185;28;20036;-61
2022/06/24 03:55:59;;;;;;;4.78;4.57;;;;;;;-143.83;100.00;62900.06;5024189;28;20032;-61
2022/06/24 03:58:24;;;;;;;4.68;4.47;;;;;;;-143.83;100.00;62900.06;5029491;28;20100;-61
2022/06/24 04:00:50;;;;;;;4.70;4.50;;;;;;;-143.83;100.00;62900.06;5033793;28;20083;-61
2022/06/24 04:03:15;;;;;;;4.90;4.70;;;;;;;-143.83;100.00;62900.06;5033512;28;20087;-62
2022/06/24 04:05:41;;;;;;;4.90;4.70;;;;;;;-143.83;100.00;62900.06;5018616;28;20422;-61
2022/06/24 04:08:07;;;;;;;4.72;4.53;;;;;;;-143.83;100.00;62900.06;5032271;28;20021;-61
2022/06/24 04:10:33;;;;;;;5.00;4.80;;;;;;;-143.83;100.00;62900.06;5033606;28;20037;-60
2022/06/24 04:12:58;;;;;;;4.78;4.57;;;;;;;-143.83;100.00;62900.06;5033586;28;20417;-61
2022/06/24 04:15:24;;;;;;;4.78;4.57;;;;;;;-143.83;100.00;62900.06;5020169;28;20095;-60
2022/06/24 04:17:49;;;;;;;4.88;4.68;;;;;;;-143.83;100.00;62900.06;5019433;28;20029;-60
2022/06/24 04:20:17;;;;;;;4.90;4.70;;;;;;;-143.83;100.00;62900.06;5025333;28;20572;-61
2022/06/24 04:22:43;;;;;;;4.90;4.70;;;;;;;-143.83;100.00;62900.06;5021943;28;20034;-61
2022/06/24 04:25:09;;;;;;;4.80;4.60;;;;;;;-143.83;100.00;62900.06;5042627;28;20041;-60
2022/06/24 04:27:35;;;;;;;4.80;4.60;;;;;;;-143.83;100.00;62900.06;5033492;28;20413;-62
2022/06/24 04:30:01;;;;;;;5.07;4.88;;;;;;;-143.83;100.00;62900.06;5033409;28;20025;-61
2022/06/24 04:32:27;;;;;;;4.90;4.70;;;;;;;-143.83;100.00;62900.06;5032139;28;20033;-61
2022/06/24 04:34:53;;;;;;;4.85;4.65;;;;;;;-143.83;100.00;62900.06;5032990;28;20076;-60
2022/06/24 04:37:18;;;;;;;4.85;4.65;;;;;;;-143.83;100.00;62900.06;5025263;28;20033;-61
2022/06/24 04:39:44;;;;;;;4.90;4.70;;;;;;;-143.83;100.00;62900.06;5032249;28;20033;-61
2022/06/24 04:42:10;;;;;;;5.00;4.80;;;;;;;-143.83;100.00;62900.06;5035478;28;20037;-61
2022/06/24 04:44:36;;;;;;;4.90;4.70;;;;;;;-143.83;100.00;62900.06;5032172;28;20032;-61
2022/06/24 04:47:02;;;;;;;4.90;4.70;;;;;;;-143.83;100.00;62900.06;5032761;28;20021;-61
2022/06/24 04:49:27;;;;;;;5.00;4.80;;;;;;;-143.83;100.00;62900.06;5031679;28;20171;-61
2022/06/24 04:51:54;;;;;;;5.00;4.80;;;;;;;-143.83;100.00;62900.06;5031675;28;20055;-61
2022/06/24 04:54:20;;;;;;;4.90;4.70;;;;;;;-143.83;100.00;62900.06;5032988;28;20083;-60
2022/06/24 04:56:45;;;;;;;4.80;4.60;;;;;;;-143.83;100.00;62900.06;5033424;28;20427;-61
2022/06/24 04:59:11;;;;;;;4.97;4.78;;;;;;;-143.83;100.00;62900.06;5026073;28;20551;-60
2022/06/24 05:01:36;;;;;;;4.90;4.70;;;;;;;-143.83;100.00;62900.06;5027301;28;20112;-60
2022/06/24 05:04:03;;;;;;;4.80;4.60;;;;;;;-143.83;100.00;62900.06;5028129;28;20032;-60
2022/06/24 05:06:28;;;;;;;4.88;4.68;;;;;;;-143.83;100.00;62900.06;5025358;28;20030;-61
2022/06/24 05:08:54;;;;;;;5.00;4.80;;;;;;;-143.83;100.00;62900.06;5032582;28;20109;-61
2022/06/24 05:11:20;;;;;;;5.13;4.93;;;;;;;-143.83;100.00;62900.06;5032169;28;20037;-60
2022/06/24 05:13:45;;;;;;;5.00;4.80;;;;;;;-143.83;100.00;62900.06;5016501;28;21449;-60
2022/06/24 05:16:11;;;;;;;5.00;4.80;;;;;;;-143.83;100.00;62900.06;5030382;28;20033;-60
2022/06/24 05:18:36;;;;;;;4.90;4.70;;;;;;;-143.83;100.00;62900.06;5032712;28;20565;-61
2022/06/24 05:21:02;;;;;;;5.00;4.80;;;;;;;-143.83;100.00;62900.06;5032301;28;20521;-61
2022/06/24 05:23:28;;;;;;;4.95;4.75;;;;;;;-143.83;100.00;62900.06;5018760;28;20121;-62
2022/06/24 05:25:54;;;;;;;4.82;4.63;;;;;;;-143.83;100.00;62900.06;5032215;28;20057;-60
2022/06/24 05:28:19;;;;;;;5.10;4.90;;;;;;;-143.83;100.00;62900.06;5030697;28;20112;-60
2022/06/24 05:30:45;;;;;;;4.95;4.75;;;;;;;-143.83;100.00;62900.06;5027382;28;20033;-60
2022/06/24 05:33:10;;;;;;;5.07;4.88;;;;;;;-143.83;100.00;62900.06;5034186;28;20443;-62
2022/06/24 05:35:36;;;;;;;5.03;4.82;;;;;;;-143.83;100.00;62900.06;5032292;28;20014;-61
2022/06/24 05:38:02;;;;;;;5.05;4.85;;;;;;;-143.83;100.00;62900.06;5019660;28;20075;-60
2022/06/24 05:40:27;;;;;;;5.10;4.90;;;;;;;-143.83;100.00;62900.06;5031059;28;20087;-60
2022/06/24 05:42:53;;;;;;;5.10;4.90;;;;;;;-143.83;100.00;62900.06;5031725;28;20543;-60
2022/06/24 05:45:19;;;;;;;4.80;4.60;;;;;;;-143.83;100.00;62900.06;5031045;28;20523;-62
2022/06/24 05:47:44;;;;;;;4.93;4.72;;;;;;;-143.83;100.00;62900.06;5025067;28;20034;-60
2022/06/24 05:50:10;;;;;;;4.93;4.72;;;;;;;-143.83;100.00;62900.06;5027311;28;20107;-61
2022/06/24 05:55:19;;;;;;;5.07;4.88;;;;;;;-143.83;100.00;62900.06;5032250;28;20112;-60
2022/06/24 05:57:46;;;;;;;4.97;4.78;;;;;;;-143.83;100.00;62900.06;5031750;28;20116;-61
2022/06/24 06:00:11;;;;;;;5.15;4.95;;;;;;;-143.83;100.00;62900.06;5031256;28;20029;-60
2022/06/24 06:02:37;;;;;;;5.15;4.95;;;;;;;-143.83;100.00;62900.06;5031958;28;20537;-59
2022/06/24 06:05:03;;;;;;;5.20;5.00;;;;;;;-143.83;100.00;62900.06;5031636;28;20053;-61
2022/06/24 06:07:28;;;;;;;5.10;4.90;;;;;;;-143.83;100.00;62900.06;5027736;28;20584;-61
2022/06/24 06:09:55;;;;;;;5.10;4.90;;;;;;;-143.83;100.00;62900.06;5014408;28;20041;-61
2022/06/24 06:12:21;;;;;;;5.32;5.13;;;;;;;-143.83;100.00;62900.06;5020898;28;20478;-60
2022/06/24 06:14:47;;;;;;;5.18;4.97;;;;;;;-143.83;100.00;62900.06;5031651;28;20056;-60
2022/06/24 06:17:12;;;;;;;5.28;5.07;;;;;;;-143.83;100.00;62900.06;5032076;28;20100;-60
2022/06/24 06:19:38;;;;;;;5.22;5.03;;;;;;;-143.83;100.00;62900.06;5029020;28;20025;-60
2022/06/24 06:22:04;;;;;;;5.30;5.10;;;;;;;-143.83;100.00;62900.06;5021632;28;20112;-61
2022/06/24 06:24:30;;;;;;;5.30;5.10;;;;;;;-143.83;100.00;62900.06;5022981;28;20108;-61
2022/06/24 06:26:57;;;;;;;5.32;5.13;;;;;;;-143.83;100.00;62900.06;5025522;28;20504;-60
2022/06/24 06:29:22;;;;;;;5.20;5.00;;;;;;;-143.83;100.00;62900.06;5027872;28;20034;-60
2022/06/24 06:31:49;;;;;;;5.25;5.05;;;;;;;-143.83;100.00;62900.06;5029059;28;20550;-61
2022/06/24 06:34:14;;;;;;;5.30;5.10;;;;;;;-143.83;100.00;62900.06;5029735;28;20025;-61
2022/06/24 06:36:40;;;;;;;5.32;5.13;;;;;;;-143.83;100.00;62900.06;5027896;28;20083;-61
2022/06/24 06:39:05;;;;;;;5.30;5.10;;;;;;;-143.83;100.00;62900.06;5023533;28;20064;-61
2022/06/24 06:41:31;;;;;;;5.25;5.05;;;;;;;-143.83;100.00;62900.06;5024267;28;20033;-61
2022/06/24 06:43:56;;;;;;;5.28;5.07;;;;;;;-143.83;100.00;62900.06;5020721;28;20056;-61
2022/06/24 06:46:22;;;;;;;5.40;5.20;;;;;;;-143.83;100.00;62900.06;5022927;28;20029;-60
2022/06/24 06:48:47;;;;;;;5.30;5.10;;;;;;;-143.83;100.00;62900.06;5016562;28;20033;-61
2022/06/24 06:51:13;;;;;;;5.28;5.07;;;;;;;-143.83;100.00;62900.06;5020142;28;20029;-61
2022/06/24 06:53:38;;;;;;;5.50;5.30;;;;;;;-143.83;100.00;62900.06;5032577;28;20029;-62
2022/06/24 06:56:04;;;;;;;5.50;5.30;;;;;;;-143.83;100.00;62900.06;5035177;28;20056;-61
2022/06/24 06:58:29;;;;;;;5.30;5.10;;;;;;;-143.83;100.00;62900.06;5028677;28;20093;-61
2022/06/24 07:00:55;;;;;;;5.50;5.30;;;;;;;-143.83;100.00;62900.06;5018344;28;20033;-60
2022/06/24 07:03:20;;;;;;;5.40;5.20;;;;;;;-143.83;100.00;62900.06;5031762;28;20086;-62
2022/06/24 07:05:46;;;;;;;5.60;5.40;;;;;;;-143.83;100.00;62900.06;5019110;28;20022;-61
2022/06/24 07:08:13;;;;;;;5.53;5.32;;;;;;;-143.83;100.00;62900.06;5019733;28;20056;-60
2022/06/24 07:10:43;;;;;;;5.53;5.32;;;;;;;-143.83;100.00;62900.06;5031059;28;20504;-62
2022/06/24 07:13:10;;;;;;;5.72;5.53;;;;;;;-143.83;100.00;62900.06;5033639;28;20029;-62
2022/06/24 07:15:36;;;;;;;5.70;5.50;;;;;;;-143.83;100.00;62900.06;5041488;28;20021;-61
2022/06/24 07:18:03;;;;;;;5.82;5.63;;;;;;;-143.83;100.00;62900.06;5034929;28;20358;-61
2022/06/24 07:20:29;;;;;;;5.70;5.50;;;;;;;-143.83;100.00;62900.06;5026663;28;20036;-63
2022/06/24 07:22:54;;;;;;;5.60;5.40;;;;;;;-143.83;100.00;62900.06;5021920;28;20044;-61
2022/06/24 07:25:20;;;;;;;5.70;5.50;;;;;;;-143.83;100.00;62900.06;5029451;28;20484;-63
2022/06/24 07:27:46;;;;;;;5.93;5.72;;;;;;;-143.83;100.00;62900.06;5019622;28;20378;-62
2022/06/24 07:30:12;;;;;;;5.90;5.70;;;;;;;-143.83;100.00;62900.06;5019761;28;20048;-63
2022/06/24 07:32:37;;;;;;;5.70;5.50;;;;;;;-143.83;100.00;62900.06;5027453;28;20029;-63
2022/06/24 07:35:03;;;;;;;5.60;5.40;;;;;;;-143.83;100.00;62900.06;5030487;28;20036;-63
2022/06/24 07:37:30;;;;;;;5.80;5.60;;;;;;;-143.83;100.00;62900.06;5024412;28;20029;-62
2022/06/24 07:39:55;;;;;;;5.50;5.30;;;;;;;-143.83;100.00;62900.06;5023928;28;20377;-63
2022/06/24 07:42:21;;;;;;;5.60;5.40;;;;;;;-143.83;100.00;62900.06;5031365;28;20032;-63
2022/06/24 07:44:47;;;;;;;5.70;5.50;;;;;;;-143.83;100.00;62900.06;5025501;28;20079;-63
2022/06/24 07:47:13;;;;;;;5.50;5.30;;;;;;;-143.83;100.00;62900.06;5027882;28;20032;-63
2022/06/24 07:49:39;;;;;;;5.57;5.38;;;;;;;-143.83;100.00;62900.06;5026153;28;20041;-62
2022/06/24 07:52:09;;;;;;;5.55;5.35;;;;;;;-143.83;100.00;62900.06;5025706;28;20402;-61
2022/06/24 07:54:35;;;;;;;5.60;5.40;;;;;;;-143.83;100.00;62900.06;5029086;28;20160;-63
2022/06/24 07:57:01;;;;;;;5.60;5.40;;;;;;;-143.83;100.00;62900.06;5025742;28;20120;-62
2022/06/24 07:59:32;;;;;;;5.43;5.22;;;;;;;-143.83;100.00;62900.06;5028440;28;20029;-63
2022/06/24 08:01:59;;;;;;;5.43;5.22;;;;;;;-143.83;100.00;62900.06;5022055;28;20033;-64
2022/06/24 08:04:27;;;;;;;5.70;5.50;;;;;;;-143.83;100.00;62900.06;5025231;28;20041;-63
2022/06/24 08:06:53;;;;;;;5.45;5.25;;;;;;;-143.83;100.00;62900.06;5029101;28;20277;-63
2022/06/24 08:09:21;;;;;;;5.65;5.45;;;;;;;-143.83;100.00;62900.06;5033099;28;20033;-63
2022/06/24 08:11:47;;;;;;;5.40;5.20;;;;;;;-143.83;100.00;62900.06;5025026;28;20035;-63
2022/06/24 08:14:14;;;;;;;5.43;5.22;;;;;;;-143.83;100.00;62900.06;5034084;28;20100;-63
2022/06/24 08:16:40;;;;;;;5.70;5.50;;;;;;;-143.83;100.00;62900.06;5027170;28;20029;-62
2022/06/24 08:19:06;;;;;;;5.57;5.38;;;;;;;-143.83;100.00;62900.06;5030279;28;20041;-66
2022/06/24 08:21:31;;;;;;;5.40;5.20;;;;;;;-143.83;100.00;62900.06;5028639;28;20044;-63
2022/06/24 08:23:57;;;;;;;5.50;5.30;;;;;;;-143.83;100.00;62900.06;5028838;28;20026;-64
2022/06/24 08:26:23;;;;;;;5.47;5.28;;;;;;;-143.83;100.00;62900.06;5033891;28;20478;-63
2022/06/24 08:28:48;;;;;;;5.68;5.47;;;;;;;-143.83;100.00;62900.06;5020532;28;20033;-63
2022/06/24 08:31:14;;;;;;;5.40;5.20;;;;;;;-143.83;100.00;62900.06;5027191;28;20071;-63
2022/06/24 08:33:39;;;;;;;5.50;5.30;;;;;;;-143.83;100.00;62900.06;5033577;28;20032;-64
2022/06/24 08:36:05;;;;;;;5.45;5.25;;;;;;;-143.83;100.00;62900.06;5029590;28;20037;-62
2022/06/24 08:38:31;;;;;;;5.47;5.28;;;;;;;-143.83;100.00;62900.06;5020825;28;20029;-62
2022/06/24 08:40:59;;;;;;;5.53;5.32;;;;;;;-143.83;100.00;62900.06;5033158;28;20102;-61
2022/06/24 08:43:29;;;;;;;5.47;5.28;;;;;;;-143.83;100.00;62900.06;5031905;28;20108;-62
2022/06/24 08:45:54;;;;;;;5.47;5.28;;;;;;;-143.83;100.00;62900.06;5028934;28;20022;-61
2022/06/24 08:48:21;;;;;;;5.50;5.30;;;;;;;-143.83;100.00;62900.06;5026852;28;20029;-62
2022/06/24 08:50:47;;;;;;;5.43;5.22;;;;;;;-143.83;100.00;62900.06;5031453;28;20122;-62
2022/06/24 08:53:17;;;;;;;5.43;5.22;;;;;;;-143.83;100.00;62900.06;5031106;28;20393;-62
2022/06/24 08:55:44;;;;;;;5.40;5.20;;;;;;;-143.83;100.00;62900.06;5024399;28;20021;-61
2022/06/24 08:58:12;;;;;;;5.50;5.30;;;;;;;-143.83;100.00;62900.06;5027357;28;21084;-60
2022/06/24 09:00:39;;;;;;;5.57;5.38;;;;;;;-143.83;100.00;62900.06;5031219;28;20026;-61
2022/06/24 09:03:05;;;;;;;5.50;5.30;;;;;;;-143.83;100.00;62900.06;5031287;28;20095;-61
2022/06/24 09:05:32;;;;;;;5.50;5.30;;;;;;;-143.83;100.00;62900.06;5032137;28;20021;-62
2022/06/24 09:08:07;;;;;;;5.60;5.40;;;;;;;-143.83;100.00;62900.06;5032497;28;20409;-60
2022/06/24 09:10:35;;;;;;;5.57;5.38;;;;;;;-143.83;100.00;62900.06;5032588;28;20199;-61
2022/06/24 09:13:00;;;;;;;5.50;5.30;;;;;;;-143.83;100.00;62900.06;5032551;28;20027;-60
2022/06/24 09:15:27;;;;;;;5.53;5.32;;;;;;;-143.83;100.00;62900.06;5032634;28;20029;-61
2022/06/24 09:17:57;;;;;;;5.60;5.40;;;;;;;-143.83;100.00;62900.06;5032843;28;20028;-61
2022/06/24 09:20:25;;;;;;;5.50;5.30;;;;;;;-143.83;100.00;62900.06;5031696;28;20385;-60
2022/06/24 09:23:05;;;;;;;5.63;5.43;;;;;;;-143.83;100.00;62900.06;5032089;28;20554;-61
2022/06/24 09:25:47;;;;;;;5.35;5.15;;;;;;;-143.83;100.00;62900.06;5023729;28;20030;-60
2022/06/24 09:28:32;;;;;;;5.40;5.20;;;;;;;-143.83;100.00;62900.06;5030049;28;20393;-60
2022/06/24 09:31:08;;;;;;;5.45;5.25;;;;;;;-143.83;100.00;62900.06;5032232;28;20021;-61
2022/06/24 09:33:41;;;;;;;5.50;5.30;;;;;;;-143.83;100.00;62900.06;5032093;28;20032;-61
2022/06/24 09:36:08;;;;;;;;;;;;;;;-143.83;100.00;62900.06;5032531;28;20064;-61
2022/06/24 09:38:55;;;;;;;5.47;5.28;;;;;;;-143.83;100.00;62900.06;5031034;28;19919;-61
2022/06/24 09:41:22;;;;;;;5.50;5.30;;;;;;;-143.83;100.00;62900.06;5031708;28;20025;-60
2022/06/24 09:43:47;;;;;;;5.40;5.20;;;;;;;-143.83;100.00;62900.06;5031359;28;20492;-60
2022/06/24 09:46:18;;;;;;;5.53;5.32;;;;;;;-143.83;100.00;62900.06;5031583;28;20040;-60
2022/06/24 09:48:44;;;;;;;5.50;5.30;;;;;;;-143.83;100.00;62900.06;5031913;28;20072;-61
2022/06/24 09:51:10;;;;;;;5.43;5.22;;;;;;;-143.83;100.00;62900.06;5031403;28;20541;-60
2022/06/24 09:53:37;;;;;;;5.40;5.20;;;;;;;-143.83;100.00;62900.06;5030324;28;20164;-62
2022/06/24 09:56:07;;;;;;;5.50;5.30;;;;;;;-143.83;100.00;62900.06;5032037;28;20448;-61
2022/06/24 09:58:34;;;;;;;5.50;5.30;;;;;;;-143.83;100.00;62900.06;5031463;28;20025;-60
2022/06/24 10:01:00;;;;;;;5.70;5.50;;;;;;;-143.83;100.00;62900.06;5031729;28;20022;-60
2022/06/24 10:03:27;;;;;;;5.57;5.38;;;;;;;-143.83;100.00;62900.06;5031619;28;20107;-61
2022/06/24 10:05:54;;;;;;;5.50;5.30;;;;;;;-143.83;100.00;62900.06;5031690;28;20017;-60
2022/06/24 10:08:24;;;;;;;5.43;5.22;;;;;;;-143.83;100.00;62900.06;5025719;28;20025;-61
2022/06/24 10:10:54;;;;;;;5.55;5.35;;;;;;;-143.83;100.00;62900.06;5028461;28;20034;-62
2022/06/24 10:13:30;;;;;;;5.50;5.30;;;;;;;-143.83;100.00;62900.06;5022614;28;20106;-61
2022/06/24 10:15:57;;;;;;;5.50;5.30;;;;;;;-143.83;100.00;62900.06;5031234;28;20036;-61
2022/06/24 10:18:27;;;;;;;5.50;5.30;;;;;;;-143.83;100.00;62900.06;5031310;28;20021;-60
2022/06/24 10:21:03;;;;;;;5.47;5.28;;;;;;;-143.83;100.00;62900.06;5031382;28;20026;-63
2022/06/24 10:24:11;;;;;;;5.50;5.30;;;;;;;-143.83;100.00;62900.06;5031660;28;20029;-61
2022/06/24 10:26:39;;;;;;;5.43;5.22;;;;;;;-143.83;100.00;62900.06;4970288;28;20034;-60
2022/06/24 10:29:04;;;;;;;5.40;5.20;;;;;;;-143.83;100.00;62900.06;5021281;28;20045;-61
2022/06/24 10:31:45;;;;;;;5.47;5.28;;;;;;;-143.83;100.00;62900.06;5031328;28;20064;-61
2022/06/24 10:34:35;;;;;;;5.40;5.20;;;;;;;-143.83;100.00;62900.06;5031104;28;20060;-60
2022/06/24 10:37:13;;;;;;;5.40;5.20;;;;;;;-143.83;100.00;62900.06;5031495;28;20541;-60
2022/06/24 10:39:48;;;;;;;5.25;5.05;;;;;;;-143.83;100.00;62900.06;5031495;28;20456;-61
2022/06/24 10:42:14;;;;;;;5.43;5.22;;;;;;;-143.83;100.00;62900.06;5031341;28;20374;-60
2022/06/24 10:45:00;;;;;;;5.40;5.20;;;;;;;-143.83;100.00;62900.06;5030054;28;20029;-60
2022/06/24 10:47:29;;;;;;;5.40;5.20;;;;;;;-143.83;100.00;62900.06;5028351;28;20025;-62
2022/06/24 10:49:54;;;;;;;5.50;5.30;;;;;;;-143.83;100.00;62900.06;5030099;28;20406;-61
2022/06/24 10:52:55;;;;;;;5.47;5.28;;;;;;;-143.83;100.00;62900.06;5029786;28;20056;-62
2022/06/24 10:55:23;;;;;;;5.50;5.30;;;;;;;-143.83;100.00;62900.06;5020552;28;20049;-60
2022/06/24 10:57:56;;;;;;;5.40;5.20;;;;;;;-143.83;100.00;62900.06;5030934;28;20068;-62
2022/06/24 11:00:50;;;;;;;5.50;5.30;;;;;;;-143.83;100.00;62900.06;5026526;28;20444;-62
2022/06/24 11:03:21;;;;;;;5.50;5.30;;;;;;;-143.83;100.00;62900.06;5025146;28;20041;-62
2022/06/24 11:05:47;;;;;;;5.55;5.35;;;;;;;-143.83;100.00;62900.06;5029225;28;20459;-63
2022/06/24 11:08:21;;;;;;;5.45;5.25;;;;;;;-143.83;100.00;62900.06;5028709;28;20033;-63
2022/06/24 11:10:48;;;;;;;5.47;5.28;;;;;;;-143.83;100.00;62900.06;5030863;28;20029;-63
2022/06/24 11:13:14;;;;;;;5.50;5.30;;;;;;;-143.83;100.00;62900.06;5023875;28;20045;-62
2022/06/24 11:15:50;;;;;;;5.25;5.05;;;;;;;-143.83;100.00;62900.06;5031959;28;20118;-62
2022/06/24 11:18:17;;;;;;;5.22;5.03;;;;;;;-143.83;100.00;62900.06;5028781;28;20095;-63
2022/06/24 11:21:01;;;;;;;5.40;5.20;;;;;;;-143.83;100.00;62900.06;5020408;28;20049;-63